Ice — ZCOE9 — position and weather

sailwx.info

Track history (hours):
 
Tides and Currents Weather Stations Pressure Air Temp Water Temp Dewpoint Dewpoint Depression Visibility Wind Speed Wind Dir Waves Ship Positions

Ice

Last reported at 2014-Sep-30 23:31 UTC. Time now 2014-Oct-25 03:42 UTC.
Position N 36°14' E 026°50'.
Warning: this ship's position is 24 days out of date.

Length 90 m; draft 5 m.

Type: Other ship. MMSI: 319411000.

Date/timePositionNaut miles runAvg speedWind from/ knotsBaromVisibWave heightAir tempDewpointWater temp
2014-Sep-30 23:31N 36°14' E 026°50'1511.0
2014-Sep-30 22:12N 36°13' E 026°32'711.1
2014-Sep-30 21:33N 36°14' E 026°23'1111.0
2014-Sep-30 20:33N 36°14' E 026°09'1311.1
2014-Sep-30 19:21N 36°15' E 025°53'911.1
2014-Sep-30 18:33N 36°15' E 025°42'1110.8
2014-Sep-30 17:33N 36°18' E 025°29'4 4.0
2014-Sep-30 16:33N 36°20' E 025°25'0 0.0
2014-Sep-30 15:33N 36°20' E 025°25'4 4.2
2014-Sep-30 14:33N 36°20' E 025°20'1312.6
2014-Sep-30 13:33N 36°21' E 025°04'1312.6
2014-Sep-30 12:33N 36°21' E 024°48'1312.7
2014-Sep-30 11:33N 36°21' E 024°33'1212.4
2014-Sep-30 10:33N 36°22' E 024°17'  
Track history (hours):
 
Tides and Currents Weather Stations Pressure Air Temp Water Temp Dewpoint Dewpoint Depression Visibility Wind Speed Wind Dir Waves Ship Positions

Ice

Last reported at 2014-Sep-30 23:31 UTC. Time now 2014-Oct-25 03:42 UTC.
Position N 36°14' E 026°50'.
Warning: this ship's position is 24 days out of date.

Length 90 m; draft 5 m.

Type: Other ship. MMSI: 319411000.

Date/timePositionNaut miles runAvg speedWind from/ knotsBaromVisibWave heightAir tempDewpointWater temp
2014-Sep-30 23:31N 36°14' E 026°50'1511.0
2014-Sep-30 22:12N 36°13' E 026°32'711.1
2014-Sep-30 21:33N 36°14' E 026°23'1111.0
2014-Sep-30 20:33N 36°14' E 026°09'1311.1
2014-Sep-30 19:21N 36°15' E 025°53'911.1
2014-Sep-30 18:33N 36°15' E 025°42'1110.8
2014-Sep-30 17:33N 36°18' E 025°29'4 4.0
2014-Sep-30 16:33N 36°20' E 025°25'0 0.0
2014-Sep-30 15:33N 36°20' E 025°25'4 4.2
2014-Sep-30 14:33N 36°20' E 025°20'1312.6
2014-Sep-30 13:33N 36°21' E 025°04'1312.6
2014-Sep-30 12:33N 36°21' E 024°48'1312.7
2014-Sep-30 11:33N 36°21' E 024°33'1212.4
2014-Sep-30 10:33N 36°22' E 024°17'  

Dump ship's entire track history